Medlin's Ranch, Nevada Weather observations

Data are for observation ending at time listed.
 Day   Time    Ave.   Ave.  Ave.  Vector   Max.   Stn.    Total    Solar   Ave.  
  of    of     Air    Rel.  Wind   Wind    Wind   Baro.  Precip.   Rad.    Soil  
Year   Day     Temp.  Hum.  Speed  Dir.    Gust   Pres.                    Temp. 
2016   (PST)    F      %     mph   deg.    mph     mb.     in.     W/m2     F   
------------------------------------------------------------------------------
 178    0:00   69.8    13    3.3   254      5.6    864     0.00       0    89.5
 178    1:00   68.0    14    3.2   251      6.8    864     0.00       0    88.0
 178    2:00   67.0    14    4.2   268      6.5    865     0.00       0    86.6
 178    3:00   64.8    16    4.0   299      6.6    865     0.00       0    85.3
 178    4:00   62.2    18    5.0   309      8.5    866     0.00       0    84.1
 178    5:00   65.7    15    4.7   295      8.1    866     0.00      14    83.0
 178    6:00   68.5    15    4.8   328      8.8    866     0.00     147    82.1
 178    7:00   78.7    12    4.2   346      7.9    867     0.00     352    81.5
 178    8:00   85.9    10    2.5    82      6.6    867     0.00     549    81.8
 178    9:00   88.6    10    3.7    84     11.8    867     0.00     719    83.2
 178   10:00   91.7     9    4.2   107      9.8    867     0.00     888    85.9
 178   11:00   94.3     8    4.2   114     12.2    867     0.00     996    89.2
 178   12:00   96.3     7    6.2   154     17.0    866     0.00    1029    92.7
 178   13:00   97.5     7    5.2   119     16.7    866     0.00    1019    96.1
 178   14:00   99.4     7    7.0   162     17.7    865     0.00     947    98.6
 178   15:00   99.6     6    8.3   205     20.8    865     0.00     834    99.4
 178   16:00   99.2     6    8.2   218     19.4    864     0.00     659    99.7
 178   17:00   98.6     6    7.1   214     16.0    864     0.00     459    100.1
 178   18:00   97.6     7    7.8   215     19.8    864     0.00     255    99.8
 178   19:00   94.6     7    7.8   229     14.1    864     0.00      72    98.8
 178   20:00   87.9     9    5.7   238      9.3    864     0.00       1    97.3
 178   21:00   83.8    10    5.4   254      8.4    865     0.00       0    95.6
 178   22:00   80.5    11    3.4   327      8.0    865     0.00       0    93.8
 178   23:00   75.9    12    3.5   288      6.1    866     0.00       0    92.2

Return to Medlin's Ranch, Nevada graphs page.


Western Regional Climate Center,wrcc@dri.edu